sensor_id;sensor_type;location;lat;lon;timestamp;P1;durP1;ratioP1;P2;durP2;ratioP2
15889;SDS011;8043;49.388;12.128;2023-09-19T00:03:40;4.25;;;1.80;;
15889;SDS011;8043;49.388;12.128;2023-09-19T00:08:43;4.80;;;2.35;;
15889;SDS011;8043;49.388;12.128;2023-09-19T00:13:47;3.33;;;1.92;;
15889;SDS011;8043;49.388;12.128;2023-09-19T00:18:50;5.55;;;2.05;;
15889;SDS011;8043;49.388;12.128;2023-09-19T00:23:53;4.62;;;2.60;;
15889;SDS011;8043;49.388;12.128;2023-09-19T00:28:55;4.00;;;1.72;;
15889;SDS011;8043;49.388;12.128;2023-09-19T00:33:59;5.67;;;1.92;;
15889;SDS011;8043;49.388;12.128;2023-09-19T00:39:05;8.08;;;1.95;;
15889;SDS011;8043;49.388;12.128;2023-09-19T00:44:09;2.20;;;1.65;;
15889;SDS011;8043;49.388;12.128;2023-09-19T00:49:12;5.35;;;1.87;;
15889;SDS011;8043;49.388;12.128;2023-09-19T00:54:16;3.12;;;1.82;;
15889;SDS011;8043;49.388;12.128;2023-09-19T00:59:19;4.78;;;1.80;;
15889;SDS011;8043;49.388;12.128;2023-09-19T01:04:26;3.60;;;1.67;;
15889;SDS011;8043;49.388;12.128;2023-09-19T01:09:28;3.85;;;2.27;;
15889;SDS011;8043;49.388;12.128;2023-09-19T01:14:34;1.80;;;1.45;;
15889;SDS011;8043;49.388;12.128;2023-09-19T01:30:39;1.52;;;1.37;;
15889;SDS011;8043;49.388;12.128;2023-09-19T01:35:43;2.42;;;1.52;;
15889;SDS011;8043;49.388;12.128;2023-09-19T01:40:57;3.73;;;1.80;;
15889;SDS011;8043;49.388;12.128;2023-09-19T01:51:18;2.00;;;1.57;;
15889;SDS011;8043;49.388;12.128;2023-09-19T01:56:28;1.77;;;1.50;;
15889;SDS011;8043;49.388;12.128;2023-09-19T02:01:32;3.52;;;1.65;;
15889;SDS011;8043;49.388;12.128;2023-09-19T02:06:40;3.67;;;1.80;;
15889;SDS011;8043;49.388;12.128;2023-09-19T02:11:43;4.17;;;1.80;;
15889;SDS011;8043;49.388;12.128;2023-09-19T02:16:45;2.75;;;1.95;;
15889;SDS011;8043;49.388;12.128;2023-09-19T02:21:48;2.77;;;1.40;;
15889;SDS011;8043;49.388;12.128;2023-09-19T02:26:50;2.25;;;1.17;;
15889;SDS011;8043;49.388;12.128;2023-09-19T02:31:55;2.35;;;1.60;;
15889;SDS011;8043;49.388;12.128;2023-09-19T02:36:58;4.70;;;1.72;;
15889;SDS011;8043;49.388;12.128;2023-09-19T02:42:01;6.53;;;1.70;;
15889;SDS011;8043;49.388;12.128;2023-09-19T02:47:07;3.15;;;1.98;;
15889;SDS011;8043;49.388;12.128;2023-09-19T02:57:12;3.83;;;1.82;;
15889;SDS011;8043;49.388;12.128;2023-09-19T03:02:16;3.15;;;1.52;;
15889;SDS011;8043;49.388;12.128;2023-09-19T03:07:19;3.12;;;1.85;;
15889;SDS011;8043;49.388;12.128;2023-09-19T03:12:22;4.35;;;1.87;;
15889;SDS011;8043;49.388;12.128;2023-09-19T03:17:24;9.38;;;1.65;;
15889;SDS011;8043;49.388;12.128;2023-09-19T03:22:27;7.78;;;1.95;;
15889;SDS011;8043;49.388;12.128;2023-09-19T03:27:30;1.92;;;1.27;;
15889;SDS011;8043;49.388;12.128;2023-09-19T03:32:32;5.05;;;1.67;;
15889;SDS011;8043;49.388;12.128;2023-09-19T03:37:36;4.35;;;2.17;;
15889;SDS011;8043;49.388;12.128;2023-09-19T03:47:44;1.77;;;1.45;;
15889;SDS011;8043;49.388;12.128;2023-09-19T03:52:49;3.70;;;2.00;;
15889;SDS011;8043;49.388;12.128;2023-09-19T03:57:51;2.02;;;1.55;;
15889;SDS011;8043;49.388;12.128;2023-09-19T04:02:54;3.52;;;1.65;;
15889;SDS011;8043;49.388;12.128;2023-09-19T04:07:57;3.27;;;2.30;;
15889;SDS011;8043;49.388;12.128;2023-09-19T04:13:01;6.12;;;1.80;;
15889;SDS011;8043;49.388;12.128;2023-09-19T04:18:12;2.58;;;1.45;;
15889;SDS011;8043;49.388;12.128;2023-09-19T04:23:14;2.90;;;1.70;;
15889;SDS011;8043;49.388;12.128;2023-09-19T04:28:17;10.78;;;2.10;;
15889;SDS011;8043;49.388;12.128;2023-09-19T04:33:19;4.72;;;1.95;;
15889;SDS011;8043;49.388;12.128;2023-09-19T04:38:22;2.92;;;1.98;;
15889;SDS011;8043;49.388;12.128;2023-09-19T04:43:25;9.10;;;1.65;;
15889;SDS011;8043;49.388;12.128;2023-09-19T04:48:27;4.47;;;1.57;;
15889;SDS011;8043;49.388;12.128;2023-09-19T04:53:30;5.65;;;1.87;;
15889;SDS011;8043;49.388;12.128;2023-09-19T04:58:32;1.65;;;1.40;;
15889;SDS011;8043;49.388;12.128;2023-09-19T05:03:35;4.60;;;1.25;;
15889;SDS011;8043;49.388;12.128;2023-09-19T05:08:38;9.65;;;2.02;;
15889;SDS011;8043;49.388;12.128;2023-09-19T05:13:41;1.50;;;1.40;;
15889;SDS011;8043;49.388;12.128;2023-09-19T05:18:45;4.67;;;1.72;;
15889;SDS011;8043;49.388;12.128;2023-09-19T05:23:47;2.80;;;1.80;;
15889;SDS011;8043;49.388;12.128;2023-09-19T05:28:50;3.83;;;1.47;;
15889;SDS011;8043;49.388;12.128;2023-09-19T05:33:53;6.75;;;1.30;;
15889;SDS011;8043;49.388;12.128;2023-09-19T05:38:55;3.47;;;1.85;;
15889;SDS011;8043;49.388;12.128;2023-09-19T05:43:58;3.60;;;1.30;;
15889;SDS011;8043;49.388;12.128;2023-09-19T05:49:01;1.42;;;1.15;;
15889;SDS011;8043;49.388;12.128;2023-09-19T05:54:04;2.50;;;1.20;;
15889;SDS011;8043;49.388;12.128;2023-09-19T05:59:07;4.28;;;0.95;;
15889;SDS011;8043;49.388;12.128;2023-09-19T06:04:09;2.40;;;1.42;;
15889;SDS011;8043;49.388;12.128;2023-09-19T06:09:12;2.80;;;1.30;;
15889;SDS011;8043;49.388;12.128;2023-09-19T06:14:14;2.55;;;1.50;;
15889;SDS011;8043;49.388;12.128;2023-09-19T06:19:18;5.10;;;1.30;;
15889;SDS011;8043;49.388;12.128;2023-09-19T06:24:22;5.55;;;1.35;;
15889;SDS011;8043;49.388;12.128;2023-09-19T06:29:26;2.63;;;1.53;;
15889;SDS011;8043;49.388;12.128;2023-09-19T06:39:30;3.33;;;0.93;;
15889;SDS011;8043;49.388;12.128;2023-09-19T06:44:33;2.25;;;1.05;;
15889;SDS011;8043;49.388;12.128;2023-09-19T06:49:36;3.83;;;1.50;;
15889;SDS011;8043;49.388;12.128;2023-09-19T06:54:38;1.30;;;1.17;;
15889;SDS011;8043;49.388;12.128;2023-09-19T06:59:42;2.60;;;1.30;;
15889;SDS011;8043;49.388;12.128;2023-09-19T07:04:45;3.60;;;1.37;;
15889;SDS011;8043;49.388;12.128;2023-09-19T07:09:48;1.55;;;1.12;;
15889;SDS011;8043;49.388;12.128;2023-09-19T07:14:52;4.53;;;0.85;;
15889;SDS011;8043;49.388;12.128;2023-09-19T07:19:55;1.67;;;1.10;;
15889;SDS011;8043;49.388;12.128;2023-09-19T07:24:59;8.53;;;1.70;;
15889;SDS011;8043;49.388;12.128;2023-09-19T07:35:03;1.35;;;0.80;;
15889;SDS011;8043;49.388;12.128;2023-09-19T07:40:06;2.40;;;0.90;;
15889;SDS011;8043;49.388;12.128;2023-09-19T07:45:10;0.68;;;0.68;;
15889;SDS011;8043;49.388;12.128;2023-09-19T07:50:15;1.40;;;1.20;;
15889;SDS011;8043;49.388;12.128;2023-09-19T07:55:27;4.55;;;0.90;;
15889;SDS011;8043;49.388;12.128;2023-09-19T08:05:33;5.40;;;0.93;;
15889;SDS011;8043;49.388;12.128;2023-09-19T08:10:37;4.55;;;1.00;;
15889;SDS011;8043;49.388;12.128;2023-09-19T08:15:44;5.10;;;1.30;;
15889;SDS011;8043;49.388;12.128;2023-09-19T08:20:50;1.32;;;1.02;;
15889;SDS011;8043;49.388;12.128;2023-09-19T08:25:56;1.92;;;0.70;;
15889;SDS011;8043;49.388;12.128;2023-09-19T08:31:04;1.15;;;0.82;;
15889;SDS011;8043;49.388;12.128;2023-09-19T08:36:07;4.87;;;1.00;;
15889;SDS011;8043;49.388;12.128;2023-09-19T08:41:10;5.03;;;1.37;;
15889;SDS011;8043;49.388;12.128;2023-09-19T08:46:17;0.98;;;0.88;;
15889;SDS011;8043;49.388;12.128;2023-09-19T08:51:27;2.50;;;1.52;;
15889;SDS011;8043;49.388;12.128;2023-09-19T08:56:33;2.10;;;0.82;;
15889;SDS011;8043;49.388;12.128;2023-09-19T09:01:35;1.10;;;0.72;;
15889;SDS011;8043;49.388;12.128;2023-09-19T09:06:38;2.60;;;0.85;;
15889;SDS011;8043;49.388;12.128;2023-09-19T09:11:43;1.20;;;0.88;;
15889;SDS011;8043;49.388;12.128;2023-09-19T09:21:49;1.22;;;0.95;;
15889;SDS011;8043;49.388;12.128;2023-09-19T09:26:52;1.15;;;0.75;;
15889;SDS011;8043;49.388;12.128;2023-09-19T09:31:55;4.53;;;0.93;;
15889;SDS011;8043;49.388;12.128;2023-09-19T09:36:59;2.33;;;0.98;;
15889;SDS011;8043;49.388;12.128;2023-09-19T09:47:05;1.67;;;0.95;;
15889;SDS011;8043;49.388;12.128;2023-09-19T09:52:22;0.90;;;0.75;;
15889;SDS011;8043;49.388;12.128;2023-09-19T09:57:24;2.10;;;0.90;;
15889;SDS011;8043;49.388;12.128;2023-09-19T10:02:30;1.45;;;1.00;;
15889;SDS011;8043;49.388;12.128;2023-09-19T10:07:37;6.35;;;1.12;;
15889;SDS011;8043;49.388;12.128;2023-09-19T10:12:47;2.77;;;0.90;;
15889;SDS011;8043;49.388;12.128;2023-09-19T10:17:49;1.52;;;1.00;;
15889;SDS011;8043;49.388;12.128;2023-09-19T10:22:53;1.90;;;0.90;;
15889;SDS011;8043;49.388;12.128;2023-09-19T10:28:00;0.98;;;0.88;;
15889;SDS011;8043;49.388;12.128;2023-09-19T10:33:04;2.70;;;0.90;;
15889;SDS011;8043;49.388;12.128;2023-09-19T10:43:11;1.82;;;1.12;;
15889;SDS011;8043;49.388;12.128;2023-09-19T10:48:17;4.35;;;1.00;;
15889;SDS011;8043;49.388;12.128;2023-09-19T10:53:20;1.20;;;0.90;;
15889;SDS011;8043;49.388;12.128;2023-09-19T10:58:30;0.88;;;0.88;;
15889;SDS011;8043;49.388;12.128;2023-09-19T11:03:34;1.30;;;0.93;;
15889;SDS011;8043;49.388;12.128;2023-09-19T11:08:55;0.78;;;0.78;;
15889;SDS011;8043;49.388;12.128;2023-09-19T11:20:14;1.65;;;0.90;;
15889;SDS011;8043;49.388;12.128;2023-09-19T11:24:52;6.30;;;0.82;;
15889;SDS011;8043;49.388;12.128;2023-09-19T11:30:25;2.23;;;0.90;;
15889;SDS011;8043;49.388;12.128;2023-09-19T11:35:21;1.12;;;0.98;;
15889;SDS011;8043;49.388;12.128;2023-09-19T11:40:24;1.40;;;1.12;;
15889;SDS011;8043;49.388;12.128;2023-09-19T11:50:51;2.50;;;1.27;;
15889;SDS011;8043;49.388;12.128;2023-09-19T11:55:54;1.50;;;1.10;;
15889;SDS011;8043;49.388;12.128;2023-09-19T12:00:57;3.10;;;1.37;;
15889;SDS011;8043;49.388;12.128;2023-09-19T12:06:01;2.65;;;1.50;;
15889;SDS011;8043;49.388;12.128;2023-09-19T12:11:11;1.92;;;1.12;;
15889;SDS011;8043;49.388;12.128;2023-09-19T12:16:16;1.05;;;0.95;;
15889;SDS011;8043;49.388;12.128;2023-09-19T12:21:28;3.58;;;1.20;;
15889;SDS011;8043;49.388;12.128;2023-09-19T12:26:37;2.72;;;1.40;;
15889;SDS011;8043;49.388;12.128;2023-09-19T12:42:16;1.20;;;0.97;;
15889;SDS011;8043;49.388;12.128;2023-09-19T12:47:20;1.50;;;1.02;;
15889;SDS011;8043;49.388;12.128;2023-09-19T12:52:26;1.05;;;0.80;;
15889;SDS011;8043;49.388;12.128;2023-09-19T12:57:30;3.30;;;0.80;;
15889;SDS011;8043;49.388;12.128;2023-09-19T13:02:34;1.82;;;0.93;;
15889;SDS011;8043;49.388;12.128;2023-09-19T13:12:43;1.35;;;0.98;;
15889;SDS011;8043;49.388;12.128;2023-09-19T13:17:47;14.40;;;1.87;;
15889;SDS011;8043;49.388;12.128;2023-09-19T13:22:51;1.10;;;0.90;;
15889;SDS011;8043;49.388;12.128;2023-09-19T13:27:56;1.82;;;0.93;;
15889;SDS011;8043;49.388;12.128;2023-09-19T13:33:10;0.72;;;0.70;;
15889;SDS011;8043;49.388;12.128;2023-09-19T13:38:14;1.05;;;0.65;;
15889;SDS011;8043;49.388;12.128;2023-09-19T13:43:18;1.12;;;0.70;;
15889;SDS011;8043;49.388;12.128;2023-09-19T13:48:22;1.25;;;1.15;;
15889;SDS011;8043;49.388;12.128;2023-09-19T13:53:26;3.05;;;1.57;;
15889;SDS011;8043;49.388;12.128;2023-09-19T13:58:29;0.95;;;0.75;;
15889;SDS011;8043;49.388;12.128;2023-09-19T14:03:33;1.52;;;0.55;;
15889;SDS011;8043;49.388;12.128;2023-09-19T14:08:36;2.42;;;0.70;;
15889;SDS011;8043;49.388;12.128;2023-09-19T14:13:39;2.52;;;0.88;;
15889;SDS011;8043;49.388;12.128;2023-09-19T14:18:44;11.10;;;1.12;;
15889;SDS011;8043;49.388;12.128;2023-09-19T14:23:47;3.87;;;0.78;;
15889;SDS011;8043;49.388;12.128;2023-09-19T14:28:49;1.00;;;0.50;;
15889;SDS011;8043;49.388;12.128;2023-09-19T14:33:55;0.60;;;0.60;;
15889;SDS011;8043;49.388;12.128;2023-09-19T14:39:00;5.22;;;1.07;;
15889;SDS011;8043;49.388;12.128;2023-09-19T14:44:03;1.90;;;0.75;;
15889;SDS011;8043;49.388;12.128;2023-09-19T14:49:06;2.40;;;1.17;;
15889;SDS011;8043;49.388;12.128;2023-09-19T14:54:10;1.27;;;0.60;;
15889;SDS011;8043;49.388;12.128;2023-09-19T14:59:13;5.85;;;0.70;;
15889;SDS011;8043;49.388;12.128;2023-09-19T15:04:16;2.03;;;1.00;;
15889;SDS011;8043;49.388;12.128;2023-09-19T15:09:18;2.80;;;0.88;;
15889;SDS011;8043;49.388;12.128;2023-09-19T15:14:22;2.65;;;0.93;;
15889;SDS011;8043;49.388;12.128;2023-09-19T15:19:25;0.82;;;0.80;;
15889;SDS011;8043;49.388;12.128;2023-09-19T15:29:30;2.77;;;0.93;;
15889;SDS011;8043;49.388;12.128;2023-09-19T15:34:32;0.78;;;0.55;;
15889;SDS011;8043;49.388;12.128;2023-09-19T15:39:35;1.95;;;1.05;;
15889;SDS011;8043;49.388;12.128;2023-09-19T15:44:37;2.65;;;0.80;;
15889;SDS011;8043;49.388;12.128;2023-09-19T15:49:41;3.75;;;1.20;;
15889;SDS011;8043;49.388;12.128;2023-09-19T15:54:45;2.92;;;0.90;;
15889;SDS011;8043;49.388;12.128;2023-09-19T15:59:47;4.62;;;0.65;;
15889;SDS011;8043;49.388;12.128;2023-09-19T16:04:50;2.35;;;0.88;;
15889;SDS011;8043;49.388;12.128;2023-09-19T16:09:53;7.65;;;0.95;;
15889;SDS011;8043;49.388;12.128;2023-09-19T16:14:56;0.93;;;0.82;;
15889;SDS011;8043;49.388;12.128;2023-09-19T16:19:58;1.30;;;0.88;;
15889;SDS011;8043;49.388;12.128;2023-09-19T16:25:01;6.25;;;1.40;;
15889;SDS011;8043;49.388;12.128;2023-09-19T16:30:05;3.55;;;1.20;;
15889;SDS011;8043;49.388;12.128;2023-09-19T16:35:14;2.17;;;1.00;;
15889;SDS011;8043;49.388;12.128;2023-09-19T16:45:18;2.12;;;1.20;;
15889;SDS011;8043;49.388;12.128;2023-09-19T16:50:22;2.95;;;1.98;;
15889;SDS011;8043;49.388;12.128;2023-09-19T16:55:25;1.80;;;1.10;;
15889;SDS011;8043;49.388;12.128;2023-09-19T17:05:29;2.73;;;0.90;;
15889;SDS011;8043;49.388;12.128;2023-09-19T17:10:35;1.07;;;0.78;;
15889;SDS011;8043;49.388;12.128;2023-09-19T17:15:38;2.37;;;1.05;;
15889;SDS011;8043;49.388;12.128;2023-09-19T17:25:42;1.47;;;0.90;;
15889;SDS011;8043;49.388;12.128;2023-09-19T17:35:48;2.10;;;1.02;;
15889;SDS011;8043;49.388;12.128;2023-09-19T17:45:53;1.32;;;1.07;;
15889;SDS011;8043;49.388;12.128;2023-09-19T17:51:00;3.80;;;0.85;;
15889;SDS011;8043;49.388;12.128;2023-09-19T17:56:04;2.58;;;1.07;;
15889;SDS011;8043;49.388;12.128;2023-09-19T18:01:12;2.27;;;1.00;;
15889;SDS011;8043;49.388;12.128;2023-09-19T18:06:20;1.10;;;1.00;;
15889;SDS011;8043;49.388;12.128;2023-09-19T18:11:23;1.10;;;1.00;;
15889;SDS011;8043;49.388;12.128;2023-09-19T18:16:28;4.85;;;1.82;;
15889;SDS011;8043;49.388;12.128;2023-09-19T18:21:35;4.22;;;1.20;;
15889;SDS011;8043;49.388;12.128;2023-09-19T18:26:40;2.27;;;1.25;;
15889;SDS011;8043;49.388;12.128;2023-09-19T18:36:45;8.50;;;1.47;;
15889;SDS011;8043;49.388;12.128;2023-09-19T18:41:49;5.50;;;1.50;;
15889;SDS011;8043;49.388;12.128;2023-09-19T18:46:52;2.30;;;1.30;;
15889;SDS011;8043;49.388;12.128;2023-09-19T18:51:56;2.30;;;1.27;;
15889;SDS011;8043;49.388;12.128;2023-09-19T18:56:58;3.15;;;1.25;;
15889;SDS011;8043;49.388;12.128;2023-09-19T19:02:03;1.57;;;1.10;;
15889;SDS011;8043;49.388;12.128;2023-09-19T19:07:06;2.40;;;1.40;;
15889;SDS011;8043;49.388;12.128;2023-09-19T19:12:11;3.12;;;1.00;;
15889;SDS011;8043;49.388;12.128;2023-09-19T19:17:14;2.05;;;1.50;;
15889;SDS011;8043;49.388;12.128;2023-09-19T19:22:17;8.15;;;1.45;;
15889;SDS011;8043;49.388;12.128;2023-09-19T19:27:21;5.90;;;2.60;;
15889;SDS011;8043;49.388;12.128;2023-09-19T19:32:24;7.92;;;2.72;;
15889;SDS011;8043;49.388;12.128;2023-09-19T19:37:27;5.80;;;2.45;;
15889;SDS011;8043;49.388;12.128;2023-09-19T19:42:30;4.75;;;2.27;;
15889;SDS011;8043;49.388;12.128;2023-09-19T19:47:33;3.90;;;2.02;;
15889;SDS011;8043;49.388;12.128;2023-09-19T19:52:39;4.20;;;2.00;;
15889;SDS011;8043;49.388;12.128;2023-09-19T19:57:43;1.80;;;1.32;;
15889;SDS011;8043;49.388;12.128;2023-09-19T20:02:47;1.65;;;1.47;;
15889;SDS011;8043;49.388;12.128;2023-09-19T20:07:52;2.62;;;1.35;;
15889;SDS011;8043;49.388;12.128;2023-09-19T20:12:54;2.95;;;1.72;;
15889;SDS011;8043;49.388;12.128;2023-09-19T20:18:01;3.80;;;2.00;;
15889;SDS011;8043;49.388;12.128;2023-09-19T20:23:05;2.30;;;1.15;;
15889;SDS011;8043;49.388;12.128;2023-09-19T20:28:08;3.65;;;2.10;;
15889;SDS011;8043;49.388;12.128;2023-09-19T20:33:10;3.20;;;1.42;;
15889;SDS011;8043;49.388;12.128;2023-09-19T20:38:13;6.30;;;1.42;;
15889;SDS011;8043;49.388;12.128;2023-09-19T20:43:17;3.90;;;1.62;;
15889;SDS011;8043;49.388;12.128;2023-09-19T20:48:20;1.72;;;1.40;;
15889;SDS011;8043;49.388;12.128;2023-09-19T20:53:22;5.30;;;1.50;;
15889;SDS011;8043;49.388;12.128;2023-09-19T20:58:26;1.95;;;1.50;;
15889;SDS011;8043;49.388;12.128;2023-09-19T21:03:29;1.67;;;1.30;;
15889;SDS011;8043;49.388;12.128;2023-09-19T21:08:35;5.97;;;1.40;;
15889;SDS011;8043;49.388;12.128;2023-09-19T21:13:37;3.62;;;1.95;;
15889;SDS011;8043;49.388;12.128;2023-09-19T21:18:40;1.30;;;1.20;;
15889;SDS011;8043;49.388;12.128;2023-09-19T21:23:43;1.70;;;1.40;;
15889;SDS011;8043;49.388;12.128;2023-09-19T21:28:46;4.08;;;1.62;;
15889;SDS011;8043;49.388;12.128;2023-09-19T21:33:51;2.90;;;1.80;;
15889;SDS011;8043;49.388;12.128;2023-09-19T21:38:53;8.05;;;1.95;;
15889;SDS011;8043;49.388;12.128;2023-09-19T21:43:56;3.87;;;1.40;;
15889;SDS011;8043;49.388;12.128;2023-09-19T21:49:00;3.33;;;1.47;;
15889;SDS011;8043;49.388;12.128;2023-09-19T21:54:03;3.20;;;2.12;;
15889;SDS011;8043;49.388;12.128;2023-09-19T22:04:07;2.37;;;1.42;;
15889;SDS011;8043;49.388;12.128;2023-09-19T22:09:13;1.75;;;1.45;;
15889;SDS011;8043;49.388;12.128;2023-09-19T22:14:16;3.33;;;1.50;;
15889;SDS011;8043;49.388;12.128;2023-09-19T22:24:21;2.25;;;1.82;;
15889;SDS011;8043;49.388;12.128;2023-09-19T22:29:25;5.97;;;1.77;;
15889;SDS011;8043;49.388;12.128;2023-09-19T22:34:29;2.17;;;1.22;;
15889;SDS011;8043;49.388;12.128;2023-09-19T22:39:32;2.35;;;1.67;;
15889;SDS011;8043;49.388;12.128;2023-09-19T22:44:36;3.42;;;1.95;;
15889;SDS011;8043;49.388;12.128;2023-09-19T22:49:40;5.40;;;1.45;;
15889;SDS011;8043;49.388;12.128;2023-09-19T22:54:43;1.95;;;1.40;;
15889;SDS011;8043;49.388;12.128;2023-09-19T22:59:48;3.58;;;1.87;;
15889;SDS011;8043;49.388;12.128;2023-09-19T23:04:52;3.42;;;1.42;;
15889;SDS011;8043;49.388;12.128;2023-09-19T23:09:56;3.72;;;1.92;;
15889;SDS011;8043;49.388;12.128;2023-09-19T23:14:58;2.65;;;1.32;;
15889;SDS011;8043;49.388;12.128;2023-09-19T23:20:03;5.22;;;1.98;;
15889;SDS011;8043;49.388;12.128;2023-09-19T23:25:07;2.27;;;1.75;;
15889;SDS011;8043;49.388;12.128;2023-09-19T23:30:14;2.50;;;1.67;;
15889;SDS011;8043;49.388;12.128;2023-09-19T23:35:18;4.45;;;1.90;;
15889;SDS011;8043;49.388;12.128;2023-09-19T23:40:21;3.90;;;1.70;;
15889;SDS011;8043;49.388;12.128;2023-09-19T23:45:32;4.35;;;1.52;;
15889;SDS011;8043;49.388;12.128;2023-09-19T23:50:36;1.77;;;1.40;;
15889;SDS011;8043;49.388;12.128;2023-09-19T23:55:41;5.40;;;1.72;;
